DLH370 EDDS-EDDL
Flight info
| Callsign | DLH370 |
|---|---|
| Flight time | 0h 37m |
| Altitude | 24000 |
| Route | TAGIK2H/07 TAGIK Z3 ABUMO N850 OHMAR Z52 ARPEG Z850 ADEMI T854 DOMUX DOMUX1A |
| Aircraft | A20N/M-SDE2E3FGHIRWXY/LB1 |
Departure
| Time | 2026-05-04 16:56 |
|---|---|
| Airport | Stuttgart Airport (EDDS) |
Arrival
| Time | 2026-05-04 17:33 |
|---|---|
| Airport | Düsseldorf Airport (EDDL) |
| Time | Latitude | Longitude | Altitude | Speed | Heading |
|---|---|---|---|---|---|
| 2026-05-04 16:31 | 48.68871 | 9.19289 | 1285 ft | 0 kts | 343° |
| 2026-05-04 16:49 | 48.68849 | 9.19298 | 1289 ft | 2 kts | 345° |
| 2026-05-04 16:50 | 48.68817 | 9.19309 | 1288 ft | 2 kts | 353° |
| 2026-05-04 16:50 | 48.68791 | 9.19295 | 1286 ft | 1 kts | 70° |
| 2026-05-04 16:51 | 48.68790 | 9.19293 | 1286 ft | 0 kts | 72° |
| 2026-05-04 16:51 | 48.68792 | 9.19302 | 1286 ft | 3 kts | 75° |
| 2026-05-04 16:52 | 48.68820 | 9.19461 | 1289 ft | 13 kts | 74° |
| 2026-05-04 16:52 | 48.68839 | 9.19557 | 1286 ft | 16 kts | 73° |
| 2026-05-04 16:53 | 48.68829 | 9.19911 | 1289 ft | 13 kts | 154° |
| 2026-05-04 16:53 | 48.68687 | 9.19986 | 1288 ft | 0 kts | 162° |
| 2026-05-04 16:54 | 48.68686 | 9.19987 | 1288 ft | 1 kts | 162° |
| 2026-05-04 16:55 | 48.68651 | 9.20412 | 1286 ft | 64 kts | 73° |
| 2026-05-04 16:55 | 48.69135 | 9.22889 | 1367 ft | 164 kts | 70° |
| 2026-05-04 16:56 | 48.69778 | 9.26234 | 2594 ft | 175 kts | 70° |
| 2026-05-04 16:56 | 48.70740 | 9.31870 | 4427 ft | 191 kts | 74° |
| 2026-05-04 16:57 | 48.71097 | 9.33894 | 5074 ft | 203 kts | 75° |
| 2026-05-04 16:57 | 48.71916 | 9.37885 | 7067 ft | 195 kts | 75° |
| 2026-05-04 16:58 | 48.74415 | 9.43141 | 9442 ft | 230 kts | 28° |
| 2026-05-04 16:58 | 48.75994 | 9.43884 | 10084 ft | 245 kts | 5° |
| 2026-05-04 16:59 | 48.79125 | 9.43234 | 12197 ft | 226 kts | 334° |
| 2026-05-04 17:00 | 48.85307 | 9.38391 | 14711 ft | 275 kts | 331° |
| 2026-05-04 17:00 | 48.90620 | 9.33549 | 16247 ft | 316 kts | 305° |
| 2026-05-04 17:01 | 48.92065 | 9.27199 | 17295 ft | 335 kts | 277° |
| 2026-05-04 17:01 | 48.92822 | 9.19937 | 18367 ft | 360 kts | 276° |
| 2026-05-04 17:02 | 48.93638 | 9.12201 | 19423 ft | 377 kts | 276° |
| 2026-05-04 17:02 | 48.94520 | 9.04269 | 20836 ft | 384 kts | 281° |
| 2026-05-04 17:03 | 48.95505 | 9.00448 | 21507 ft | 394 kts | 296° |
| 2026-05-04 17:03 | 48.97163 | 8.97128 | 22103 ft | 405 kts | 312° |
| 2026-05-04 17:03 | 49.02167 | 8.92870 | 23331 ft | 427 kts | 343° |
| 2026-05-04 17:04 | 49.08185 | 8.92671 | 23932 ft | 438 kts | 6° |
| 2026-05-04 17:04 | 49.14208 | 8.94016 | 23967 ft | 438 kts | 6° |
| 2026-05-04 17:05 | 49.20253 | 8.95071 | 23969 ft | 434 kts | 4° |
| 2026-05-04 17:05 | 49.26276 | 8.95935 | 23970 ft | 434 kts | 3° |
| 2026-05-04 17:06 | 49.32272 | 8.96766 | 23971 ft | 434 kts | 3° |
| 2026-05-04 17:06 | 49.35284 | 8.97185 | 23971 ft | 434 kts | 4° |
| 2026-05-04 17:07 | 49.41297 | 8.98026 | 23976 ft | 433 kts | 4° |
| 2026-05-04 17:07 | 49.43277 | 8.98305 | 23973 ft | 430 kts | 4° |
| 2026-05-04 17:07 | 49.47272 | 8.98865 | 23976 ft | 431 kts | 3° |
| 2026-05-04 17:07 | 49.50227 | 8.99279 | 23974 ft | 431 kts | 4° |
| 2026-05-04 17:08 | 49.53212 | 8.99696 | 23980 ft | 431 kts | 3° |
| 2026-05-04 17:08 | 49.59200 | 9.00521 | 23984 ft | 431 kts | 3° |
| 2026-05-04 17:08 | 49.62196 | 9.00933 | 23991 ft | 431 kts | 3° |
| 2026-05-04 17:09 | 49.65192 | 9.01354 | 23986 ft | 431 kts | 3° |
| 2026-05-04 17:09 | 49.68144 | 9.01778 | 23982 ft | 431 kts | 3° |
| 2026-05-04 17:09 | 49.71132 | 9.02210 | 23984 ft | 431 kts | 3° |
| 2026-05-04 17:10 | 49.77102 | 9.03073 | 23983 ft | 431 kts | 3° |
| 2026-05-04 17:10 | 49.86078 | 9.04372 | 23987 ft | 432 kts | 3° |
| 2026-05-04 17:11 | 49.89073 | 9.04780 | 23988 ft | 431 kts | 0° |
| 2026-05-04 17:11 | 49.92055 | 9.04613 | 23989 ft | 427 kts | 349° |
| 2026-05-04 17:11 | 50.03022 | 8.98954 | 23979 ft | 422 kts | 336° |
| 2026-05-04 17:12 | 50.08508 | 8.95709 | 23983 ft | 421 kts | 335° |
| 2026-05-04 17:12 | 50.19883 | 8.91158 | 23978 ft | 427 kts | 349° |
| 2026-05-04 17:13 | 50.28957 | 8.89227 | 23973 ft | 427 kts | 349° |
| 2026-05-04 17:14 | 50.54867 | 8.83786 | 23986 ft | 426 kts | 349° |
| 2026-05-04 17:14 | 50.66563 | 8.83031 | 23965 ft | 432 kts | 7° |
| 2026-05-04 17:14 | 50.87293 | 8.75909 | 23961 ft | 401 kts | 292° |
| 2026-05-04 17:15 | 50.90647 | 8.64322 | 23971 ft | 400 kts | 292° |
| 2026-05-04 17:15 | 50.93161 | 8.56452 | 23740 ft | 399 kts | 294° |
| 2026-05-04 17:16 | 50.95718 | 8.48701 | 23252 ft | 398 kts | 294° |
| 2026-05-04 17:16 | 50.99554 | 8.37060 | 22627 ft | 396 kts | 294° |
| 2026-05-04 17:17 | 51.00972 | 8.33313 | 22859 ft | 399 kts | 303° |
| 2026-05-04 17:17 | 51.07677 | 8.25261 | 22990 ft | 410 kts | 327° |
| 2026-05-04 17:18 | 51.10118 | 8.23107 | 22874 ft | 392 kts | 327° |
| 2026-05-04 17:18 | 51.14676 | 8.19069 | 22178 ft | 361 kts | 327° |
| 2026-05-04 17:19 | 51.19014 | 8.15193 | 21624 ft | 352 kts | 327° |
| 2026-05-04 17:19 | 51.22854 | 8.10712 | 21126 ft | 339 kts | 301° |
| 2026-05-04 17:20 | 51.24519 | 8.04096 | 20422 ft | 313 kts | 283° |
| 2026-05-04 17:20 | 51.25822 | 7.97486 | 19163 ft | 311 kts | 283° |
| 2026-05-04 17:20 | 51.26472 | 7.94181 | 18519 ft | 311 kts | 283° |
| 2026-05-04 17:21 | 51.27767 | 7.87567 | 17130 ft | 311 kts | 283° |
| 2026-05-04 17:21 | 51.29036 | 7.80948 | 15750 ft | 311 kts | 283° |
| 2026-05-04 17:22 | 51.29653 | 7.77678 | 15098 ft | 311 kts | 283° |
| 2026-05-04 17:22 | 51.30268 | 7.74377 | 14490 ft | 310 kts | 283° |
| 2026-05-04 17:23 | 51.32073 | 7.64538 | 12599 ft | 305 kts | 283° |
| 2026-05-04 17:23 | 51.32660 | 7.61287 | 11957 ft | 302 kts | 283° |
| 2026-05-04 17:23 | 51.33782 | 7.54861 | 10714 ft | 297 kts | 283° |
| 2026-05-04 17:24 | 51.34327 | 7.51685 | 10107 ft | 295 kts | 283° |
| 2026-05-04 17:24 | 51.35920 | 7.42326 | 8269 ft | 286 kts | 283° |
| 2026-05-04 17:25 | 51.36446 | 7.39291 | 7763 ft | 280 kts | 283° |
| 2026-05-04 17:25 | 51.37485 | 7.33380 | 6702 ft | 274 kts | 283° |
| 2026-05-04 17:26 | 51.38512 | 7.27610 | 5816 ft | 260 kts | 283° |
| 2026-05-04 17:26 | 51.39919 | 7.19763 | 4967 ft | 235 kts | 283° |
| 2026-05-04 17:27 | 51.40816 | 7.14760 | 4432 ft | 229 kts | 283° |
| 2026-05-04 17:27 | 51.41661 | 7.10031 | 3937 ft | 212 kts | 283° |
| 2026-05-04 17:28 | 51.41854 | 7.05492 | 3989 ft | 206 kts | 240° |
| 2026-05-04 17:29 | 51.39424 | 6.99772 | 3535 ft | 204 kts | 233° |
| 2026-05-04 17:29 | 51.37076 | 6.94432 | 2685 ft | 199 kts | 232° |
| 2026-05-04 17:30 | 51.34702 | 6.89231 | 1863 ft | 182 kts | 230° |
| 2026-05-04 17:31 | 51.33169 | 6.86070 | 1256 ft | 176 kts | 230° |
| 2026-05-04 17:31 | 51.31203 | 6.81992 | 733 ft | 137 kts | 228° |
| 2026-05-04 17:32 | 51.30019 | 6.79523 | 385 ft | 141 kts | 231° |
| 2026-05-04 17:33 | 51.28567 | 6.76486 | 122 ft | 50 kts | 231° |
| 2026-05-04 17:33 | 51.28372 | 6.76095 | 123 ft | 19 kts | 217° |
| 2026-05-04 17:34 | 51.28223 | 6.76062 | 124 ft | 0 kts | 157° |
| 2026-05-04 17:35 | 51.28218 | 6.76065 | 124 ft | 3 kts | 157° |
| 2026-05-04 17:35 | 51.28199 | 6.76080 | 125 ft | 0 kts | 152° |
| 2026-05-04 17:36 | 51.28197 | 6.76088 | 124 ft | 2 kts | 122° |
| 2026-05-04 17:36 | 51.28194 | 6.76133 | 123 ft | 7 kts | 82° |
| 2026-05-04 17:36 | 51.28227 | 6.76227 | 125 ft | 12 kts | 51° |
| 2026-05-04 17:36 | 51.28290 | 6.76361 | 121 ft | 18 kts | 53° |